Terminal Aerodrome Forecast
Issued by NWS

Home | Current Version | Previous Version | Text Only | Print | Product List | Glossary On
Versions: 1 2 3 4 5 6 7 8 9 10 11 12 13 14 15 16 17 18 19 20 21 22 23 24 25 26
000
FTUS44 KTSA 250500
TAFFYV
TAF
KFYV 250520Z 2506/2606 19007KT P6SM SCT007 BKN250
      TEMPO 2506/2509 BKN007
     FM250900 17002KT 4SM BR OVC005
      TEMPO 2509/2513 OVC003
     FM251600 18010KT P6SM OVC015
     FM251800 18010KT P6SM BKN050 PROB30 2600/2606 P6SM TS BKN050CB=

USA.gov is the U.S. government's official web portal to all federal, state and local government web resources and services.